Time;durP1;ratioP1;P1;durP2;ratioP2;P2;SDS_P1;SDS_P2;PMS_P1;PMS_P2;Temp;Humidity;BMP_temperature;BMP_pressure;BME280_temperature;BME280_humidity;BME280_pressure;Samples;Min_cycle;Max_cycle;Signal;HPM_P1;HPM_P2
2022/09/23 00:01:06;;;;;;;3.30;2.47;;;;;;;4.75;83.00;95863.36;1768507;81;21014;-69
2022/09/23 00:03:37;;;;;;;3.13;2.47;;;;;;;4.72;83.06;95859.42;1768344;81;21465;-70
2022/09/23 00:06:09;;;;;;;5.70;3.90;;;;;;;4.66;83.22;95854.56;1768348;81;21010;-70
2022/09/23 00:08:37;;;;;;;6.23;3.90;;;;;;;4.65;83.77;95856.75;1767350;81;21472;-70
2022/09/23 00:11:09;;;;;;;5.13;3.40;;;;;;;4.56;84.42;95852.30;1768296;81;21026;-70
2022/09/23 00:13:37;;;;;;;3.33;2.37;;;;;;;4.51;84.27;95848.77;1767780;81;20994;-71
2022/09/23 00:16:07;;;;;;;3.80;2.47;;;;;;;4.57;84.43;95851.89;1768400;81;21061;-70
2022/09/23 00:18:34;;;;;;;4.10;2.50;;;;;;;4.62;84.42;95843.66;1768115;81;20998;-70
2022/09/23 00:21:08;;;;;;;3.53;2.40;;;;;;;4.65;84.18;95846.30;1768600;81;21045;-70
2022/09/23 00:23:35;;;;;;;4.60;2.60;;;;;;;4.67;84.17;95844.13;1768704;81;21002;-70
2022/09/23 00:26:04;;;;;;;3.93;2.40;;;;;;;4.70;84.92;95845.90;1768004;81;21002;-70
2022/09/23 00:28:31;;;;;;;8.30;3.50;;;;;;;4.74;84.44;95842.45;1768415;81;21029;-70
2022/09/23 00:31:12;;;;;;;4.53;1.97;;;;;;;4.74;84.55;95835.92;1768230;81;21112;-68
2022/09/23 00:33:42;;;;;;;5.40;2.60;;;;;;;4.74;84.57;95839.41;1767261;81;21053;-70
2022/09/23 00:36:15;;;;;;;2.60;2.23;;;;;;;4.78;84.51;95834.63;1768608;81;21005;-70
2022/09/23 00:38:44;;;;;;;3.17;2.35;;;;;;;4.84;84.32;95837.74;1768594;81;21037;-70
2022/09/23 00:41:14;;;;;;;2.40;2.10;;;;;;;4.90;84.78;95836.47;1768025;81;21061;-70
2022/09/23 00:43:57;;;;;;;3.27;2.40;;;;;;;4.91;84.78;95836.93;1768610;81;20994;-70
2022/09/23 00:46:28;;;;;;;3.23;2.20;;;;;;;4.89;84.77;95837.34;1768075;81;21082;-70
2022/09/23 00:49:00;;;;;;;2.27;2.00;;;;;;;4.90;84.58;95842.13;1768049;81;21046;-70
2022/09/23 00:51:34;;;;;;;4.83;2.30;;;;;;;4.88;84.91;95846.47;1768482;81;21022;-70
2022/09/23 00:54:01;;;;;;;3.13;2.03;;;;;;;4.84;84.78;95848.20;1768389;81;21010;-70
2022/09/23 00:56:31;;;;;;;3.47;2.80;;;;;;;4.83;84.22;95848.17;1736190;81;20999;-71
2022/09/23 00:59:00;;;;;;;3.30;2.57;;;;;;;4.77;84.25;95848.57;1768410;81;21500;-70
2022/09/23 01:01:27;;;;;;;5.00;2.63;;;;;;;4.81;84.95;95846.84;1768197;81;21512;-71
2022/09/23 01:03:56;;;;;;;2.80;2.03;;;;;;;4.82;84.97;95842.52;1768345;81;21013;-70
2022/09/23 01:06:23;;;;;;;3.80;2.20;;;;;;;4.82;84.82;95848.61;1768614;81;21504;-70
2022/09/23 01:08:51;;;;;;;3.60;2.33;;;;;;;4.88;84.63;95846.03;1768641;81;21022;-70
2022/09/23 01:11:38;;;;;;;3.07;2.00;;;;;;;4.95;84.95;95841.73;1768455;81;20974;-69
2022/09/23 01:14:33;;;;;;;2.17;1.90;;;;;;;4.92;84.73;95844.33;1768501;81;21025;-69
2022/09/23 01:17:13;;;;;;;2.00;1.80;;;;;;;4.97;84.47;95843.94;1768789;81;21500;-69
2022/09/23 01:20:32;;;;;;;2.80;2.27;;;;;;;4.94;85.69;95846.53;1768395;81;21014;-70
2022/09/23 01:23:19;;;;;;;2.93;2.23;;;;;;;4.95;85.45;95848.27;1767922;81;20983;-69
2022/09/23 01:25:59;;;;;;;2.37;2.07;;;;;;;4.94;85.52;95847.84;1767817;81;21026;-70
2022/09/23 01:28:57;;;;;;;3.33;2.50;;;;;;;4.92;86.38;95845.64;1768612;81;21065;-70
2022/09/23 01:31:49;;;;;;;3.30;2.30;;;;;;;4.91;86.14;95845.17;1768162;81;21500;-70
2022/09/23 01:34:35;;;;;;;2.60;2.13;;;;;;;4.87;85.70;95849.96;1767696;81;20990;-70
2022/09/23 01:37:19;;;;;;;2.60;2.10;;;;;;;4.88;85.85;95859.10;1768471;81;21053;-70
2022/09/23 01:39:54;;;;;;;3.93;2.57;;;;;;;4.82;86.05;95855.59;1768465;81;21851;-70
2022/09/23 01:42:38;;;;;;;6.07;2.73;;;;;;;4.79;86.03;95851.21;1752016;81;21081;-70
2022/09/23 01:45:29;;;;;;;5.77;3.00;;;;;;;4.74;85.32;95848.55;1767942;81;21001;-70
2022/09/23 01:48:12;;;;;;;5.23;3.07;;;;;;;4.68;85.44;95851.54;1768482;81;21070;-70
2022/09/23 01:50:56;;;;;;;6.33;3.60;;;;;;;4.63;86.11;95858.03;1768694;81;20986;-70
2022/09/23 01:53:49;;;;;;;5.23;3.77;;;;;;;4.71;86.45;95860.70;1768651;81;20986;-70
2022/09/23 01:56:33;;;;;;;6.17;3.33;;;;;;;4.80;86.78;95859.48;1768387;81;21029;-69
2022/09/23 01:59:17;;;;;;;5.13;3.03;;;;;;;4.80;85.81;95858.17;1768488;81;20990;-70
2022/09/23 02:01:58;;;;;;;3.67;2.93;;;;;;;4.77;86.30;95859.03;1768547;81;21022;-70
2022/09/23 02:04:30;;;;;;;4.37;2.80;;;;;;;4.78;86.37;95856.84;1757901;81;21029;-70
2022/09/23 02:07:05;;;;;;;3.33;2.60;;;;;;;4.75;85.97;95862.05;1768537;81;20986;-70
2022/09/23 02:09:40;;;;;;;2.70;2.17;;;;;;;4.64;85.27;95862.84;1760206;81;21034;-70
2022/09/23 02:12:12;;;;;;;2.27;2.07;;;;;;;4.58;85.42;95869.31;1768609;81;21575;-70
2022/09/23 02:15:06;;;;;;;5.83;2.00;;;;;;;4.57;85.04;95868.88;1736123;81;21022;-70
2022/09/23 02:17:44;;;;;;;3.42;2.12;;;;;;;4.52;85.25;95868.39;1767780;81;21034;-70
2022/09/23 02:20:14;;;;;;;2.60;2.10;;;;;;;4.55;85.77;95871.47;1768059;81;21069;-70
2022/09/23 02:23:06;;;;;;;2.43;2.00;;;;;;;4.64;85.50;95870.69;1768518;81;20963;-70
2022/09/23 02:26:00;;;;;;;3.37;2.60;;;;;;;4.66;86.01;95871.55;1768104;81;21112;-70
2022/09/23 02:28:32;;;;;;;3.27;2.60;;;;;;;4.71;86.38;95872.06;1767458;81;21539;-70
2022/09/23 02:31:10;;;;;;;3.87;2.70;;;;;;;4.75;85.93;95872.52;1768506;81;21030;-70
2022/09/23 02:33:42;;;;;;;3.33;2.67;;;;;;;4.75;85.64;95871.64;1767335;81;21022;-70
2022/09/23 02:36:20;;;;;;;3.97;3.13;;;;;;;4.77;85.35;95872.53;1768531;81;21022;-70
2022/09/23 02:38:58;;;;;;;3.87;3.10;;;;;;;4.75;85.75;95863.36;1767559;81;21551;-69
2022/09/23 02:41:50;;;;;;;4.13;2.77;;;;;;;4.84;85.60;95866.91;1768706;81;21472;-70
2022/09/23 02:44:19;;;;;;;2.77;2.10;;;;;;;4.82;85.28;95867.35;1758764;80;21022;-69
2022/09/23 02:46:49;;;;;;;2.17;1.97;;;;;;;4.76;84.79;95864.23;1773501;80;21024;-69
2022/09/23 02:49:25;;;;;;;3.00;2.40;;;;;;;4.69;84.78;95859.84;1768457;81;20987;-70
2022/09/23 02:51:53;;;;;;;3.50;2.33;;;;;;;4.63;85.06;95869.78;1768583;81;21045;-70
2022/09/23 02:54:25;;;;;;;5.30;3.40;;;;;;;4.62;85.58;95870.66;1768192;81;21562;-70
2022/09/23 02:56:53;;;;;;;11.63;5.47;;;;;;;4.53;85.91;95872.75;1768493;81;21007;-70
2022/09/23 02:59:23;;;;;;;18.40;6.90;;;;;;;4.49;86.14;95867.06;1768426;81;20982;-70
2022/09/23 03:02:26;;;;;;;6.77;3.47;;;;;;;4.46;86.39;95876.59;1768496;81;21065;-70
2022/09/23 03:05:21;;;;;;;6.50;4.17;;;;;;;4.43;86.66;95873.52;1768315;81;21050;-70
2022/09/23 03:07:59;;;;;;;;;;;;;;;4.46;86.14;95881.82;1738264;83;21133;-70
2022/09/23 03:10:40;;;;;;;5.23;3.50;;;;;;;4.43;86.01;95871.34;1762757;81;20403;-70
2022/09/23 03:13:28;;;;;;;3.93;2.40;;;;;;;4.41;86.49;95873.06;1768501;81;21030;-70
2022/09/23 03:16:22;;;;;;;2.20;1.87;;;;;;;4.41;86.15;95875.67;1737353;81;21047;-68
2022/09/23 03:18:56;;;;;;;5.08;2.87;;;;;;;4.38;86.55;95876.52;1768290;81;21038;-69
2022/09/23 03:21:34;;;;;;;5.13;2.57;;;;;;;4.45;86.52;95880.08;1768532;81;21041;-70
2022/09/23 03:24:05;;;;;;;3.80;3.00;;;;;;;4.46;86.70;95877.50;1768766;81;21010;-70
2022/09/23 03:26:35;;;;;;;3.77;3.10;;;;;;;4.51;86.98;95884.05;1768622;81;21001;-71
2022/09/23 03:29:08;;;;;;;3.50;2.70;;;;;;;4.54;86.88;95884.09;1768327;81;21058;-70
2022/09/23 03:31:38;;;;;;;3.57;2.97;;;;;;;4.57;86.89;95872.36;1768514;81;21540;-70
2022/09/23 03:34:19;;;;;;;2.67;2.40;;;;;;;4.62;86.78;95873.28;1768347;81;21014;-70
2022/09/23 03:37:01;;;;;;;4.63;2.37;;;;;;;4.62;86.09;95875.02;1768622;81;21029;-70
2022/09/23 03:39:49;;;;;;;3.33;2.77;;;;;;;4.62;85.86;95875.89;1768214;81;21038;-70
2022/09/23 03:42:28;;;;;;;3.10;2.07;;;;;;;4.61;85.63;95874.55;1768340;81;21046;-70
2022/09/23 03:44:56;;;;;;;3.20;2.40;;;;;;;4.63;85.76;95872.41;1768452;81;21006;-70
2022/09/23 03:47:27;;;;;;;3.40;2.80;;;;;;;4.69;86.41;95872.91;1763748;81;21098;-70
2022/09/23 03:49:55;;;;;;;3.00;2.40;;;;;;;4.81;86.25;95877.34;1756024;82;21022;-70
2022/09/23 03:52:24;;;;;;;2.87;2.60;;;;;;;4.88;85.84;95870.87;1756389;82;20991;-70
2022/09/23 03:54:52;;;;;;;3.20;2.47;;;;;;;4.91;85.37;95866.09;1756347;82;21003;-73
2022/09/23 03:57:21;;;;;;;2.93;2.30;;;;;;;4.98;85.34;95865.28;1755948;82;21046;-74
2022/09/23 03:59:49;;;;;;;3.23;2.30;;;;;;;5.07;84.96;95861.87;1756459;81;21046;-70
2022/09/23 04:02:18;;;;;;;3.50;2.40;;;;;;;5.14;84.67;95861.92;1756416;82;21019;-71
2022/09/23 04:04:45;;;;;;;2.77;2.30;;;;;;;5.15;84.90;95858.44;1756260;82;21489;-68
2022/09/23 04:07:12;;;;;;;3.27;2.40;;;;;;;5.21;84.34;95861.08;1756404;81;21007;-68
2022/09/23 04:09:39;;;;;;;3.37;2.40;;;;;;;5.26;84.63;95863.72;1756168;82;20994;-68
2022/09/23 04:12:07;;;;;;;3.40;3.10;;;;;;;5.28;83.74;95867.23;1756124;82;21050;-68
2022/09/23 04:14:34;;;;;;;4.53;3.60;;;;;;;5.21;83.62;95864.13;1756339;81;20999;-68
2022/09/23 04:17:01;;;;;;;5.00;4.50;;;;;;;5.17;83.97;95867.61;1756283;82;21487;-68
2022/09/23 04:19:28;;;;;;;3.83;3.30;;;;;;;5.12;84.18;95869.32;1756207;82;21037;-68
2022/09/23 04:21:55;;;;;;;3.90;3.17;;;;;;;5.10;84.11;95870.61;1756051;81;21122;-68
2022/09/23 04:24:21;;;;;;;6.77;3.23;;;;;;;5.02;83.76;95866.20;1756493;82;20971;-68
2022/09/23 04:26:54;;;;;;;37.27;16.40;;;;;;;4.94;84.04;95868.32;1756014;82;21043;-68
2022/09/23 04:29:22;;;;;;;34.67;15.10;;;;;;;4.95;84.95;95868.75;1756256;81;20999;-68
2022/09/23 04:31:49;;;;;;;12.50;6.87;;;;;;;4.94;85.22;95873.55;1756044;82;21508;-68
2022/09/23 04:34:16;;;;;;;7.93;5.17;;;;;;;4.90;85.64;95876.13;1756282;82;21496;-68
2022/09/23 04:36:45;;;;;;;34.47;16.97;;;;;;;4.89;85.63;95874.35;1756430;82;21523;-68
2022/09/23 04:39:13;;;;;;;98.80;45.03;;;;;;;4.88;86.38;95873.48;1756187;82;21456;-68
2022/09/23 04:41:42;;;;;;;84.07;42.00;;;;;;;4.89;86.72;95870.02;1756285;82;21015;-68
2022/09/23 04:44:11;;;;;;;45.43;22.67;;;;;;;4.85;86.61;95866.93;1756417;82;21011;-68
2022/09/23 04:46:41;;;;;;;50.27;25.03;;;;;;;4.89;86.36;95873.05;1756201;82;20987;-68
2022/09/23 04:49:08;;;;;;;50.70;27.73;;;;;;;4.93;86.07;95869.60;1767083;81;21077;-68
2022/09/23 04:51:35;;;;;;;37.07;18.83;;;;;;;4.93;86.14;95869.60;1767935;81;21080;-68
2022/09/23 04:54:01;;;;;;;26.00;11.33;;;;;;;4.97;86.29;95867.03;1768331;81;21026;-68
2022/09/23 04:56:32;;;;;;;25.80;13.03;;;;;;;5.02;86.63;95868.81;1768346;81;21579;-68
2022/09/23 04:59:00;;;;;;;30.17;17.93;;;;;;;5.13;86.64;95871.06;1768088;81;20986;-75
2022/09/23 05:01:30;;;;;;;28.23;19.10;;;;;;;5.23;86.49;95866.77;1767756;81;21034;-68
2022/09/23 05:04:02;;;;;;;22.57;12.00;;;;;;;5.37;86.73;95875.15;1767742;81;21021;-74
2022/09/23 05:06:31;;;;;;;14.00;8.63;;;;;;;5.49;86.34;95865.16;1767105;81;21093;-76
2022/09/23 05:08:58;;;;;;;14.17;9.47;;;;;;;5.64;86.38;95864.37;1767276;81;22189;-79
2022/09/23 05:11:28;;;;;;;13.13;8.10;;;;;;;5.75;85.82;95863.13;1767019;81;21176;-69
2022/09/23 05:13:55;;;;;;;9.83;6.70;;;;;;;5.84;85.16;95860.09;1768044;81;21488;-71
2022/09/23 05:16:23;;;;;;;10.57;5.77;;;;;;;5.86;85.02;95860.11;1768136;81;21073;-68
2022/09/23 05:18:52;;;;;;;11.60;6.00;;;;;;;5.90;85.23;95857.95;1767696;81;21603;-71
2022/09/23 05:21:27;;;;;;;12.27;5.90;;;;;;;6.03;85.31;95858.46;1767949;81;21018;-71
2022/09/23 05:23:57;;;;;;;8.70;5.80;;;;;;;6.17;85.27;95862.42;1768103;81;20979;-76
2022/09/23 05:26:28;;;;;;;9.63;6.03;;;;;;;6.26;84.33;95861.58;1767866;81;21403;-69
2022/09/23 05:28:55;;;;;;;8.83;4.77;;;;;;;6.26;83.57;95862.45;1767569;81;21057;-74
2022/09/23 05:31:26;;;;;;;11.47;4.70;;;;;;;6.20;83.41;95869.41;1768110;81;21097;-74
2022/09/23 05:33:57;;;;;;;10.30;6.67;;;;;;;6.16;84.17;95861.13;1768261;81;21682;-73
2022/09/23 05:36:24;;;;;;;14.20;7.53;;;;;;;6.17;84.18;95866.79;1768284;81;21022;-67
2022/09/23 05:38:53;;;;;;;12.00;7.00;;;;;;;6.12;84.53;95865.90;1767187;81;21057;-75
2022/09/23 05:41:24;;;;;;;17.93;8.33;;;;;;;6.17;84.75;95864.17;1767902;81;21010;-72
2022/09/23 05:43:52;;;;;;;13.83;8.37;;;;;;;6.27;85.00;95866.84;1767115;81;20998;-72
2022/09/23 05:46:26;;;;;;;8.13;5.23;;;;;;;6.29;84.69;95869.00;1768038;81;21046;-72
2022/09/23 05:48:55;;;;;;;9.07;5.57;;;;;;;6.28;84.32;95871.64;1767557;81;21002;-71
2022/09/23 05:51:25;;;;;;;7.77;6.70;;;;;;;6.30;84.54;95872.52;1767584;81;21169;-68
2022/09/23 05:53:54;;;;;;;6.83;4.67;;;;;;;6.32;84.31;95878.62;1766737;81;20994;-75
2022/09/23 05:56:23;;;;;;;5.40;4.67;;;;;;;6.31;84.38;95879.50;1767440;81;21026;-78
2022/09/23 05:58:53;;;;;;;10.03;5.30;;;;;;;6.33;84.67;95881.70;1767076;81;21574;-77
2022/09/23 06:01:26;;;;;;;8.93;5.63;;;;;;;6.34;84.47;95879.94;1767232;81;21084;-79
2022/09/23 06:03:57;;;;;;;15.93;10.70;;;;;;;6.47;85.17;95880.40;1767660;81;21053;-79
2022/09/23 06:06:31;;;;;;;26.83;13.97;;;;;;;6.55;85.43;95871.23;1767726;81;21538;-77
2022/09/23 06:09:00;;;;;;;51.60;36.27;;;;;;;6.67;85.59;95869.95;1767752;81;21743;-80
2022/09/23 06:11:29;;;;;;;31.90;22.07;;;;;;;6.77;85.25;95870.39;1768343;81;21069;-76
2022/09/23 06:14:01;;;;;;;35.60;23.67;;;;;;;6.83;85.00;95872.13;1767829;81;21217;-74
2022/09/23 06:16:27;;;;;;;12.20;7.83;;;;;;;6.89;84.92;95871.70;1766265;81;21053;-73
2022/09/23 06:18:54;;;;;;;10.63;6.80;;;;;;;6.89;84.23;95865.15;1767979;81;21554;-86
2022/09/23 06:21:20;;;;;;;10.83;8.10;;;;;;;6.91;84.15;95871.27;1768256;81;21499;-77
2022/09/23 06:23:47;;;;;;;8.73;5.10;;;;;;;7.07;84.31;95873.89;1768390;81;21360;-76
2022/09/23 06:26:15;;;;;;;24.43;15.23;;;;;;;7.29;84.39;95870.82;1766500;81;21104;-74
2022/09/23 06:28:44;;;;;;;19.80;17.30;;;;;;;7.50;84.25;95864.20;1767867;81;21018;-71
2022/09/23 06:31:16;;;;;;;7.77;5.83;;;;;;;7.77;84.07;95861.94;1767514;81;21034;-74
2022/09/23 06:33:45;;;;;;;4.08;2.90;;;;;;;8.01;83.88;95861.40;1768627;81;21041;-73
2022/09/23 06:36:13;;;;;;;4.07;2.87;;;;;;;8.20;83.55;95858.26;1768584;81;21074;-70
2022/09/23 06:38:48;;;;;;;5.07;3.70;;;;;;;8.40;83.43;95864.31;1768135;81;21038;-71
2022/09/23 06:41:15;;;;;;;5.87;2.93;;;;;;;8.59;83.21;95863.77;1768080;81;21132;-74
2022/09/23 06:43:41;;;;;;;4.80;3.00;;;;;;;8.90;82.78;95868.81;1768263;81;21504;-72
2022/09/23 06:46:12;;;;;;;4.50;3.05;;;;;;;9.07;80.44;95855.07;1767370;81;21160;-75
2022/09/23 06:48:39;;;;;;;3.72;2.92;;;;;;;9.20;80.18;95858.47;1767510;81;21076;-76
2022/09/23 06:51:11;;;;;;;7.45;3.52;;;;;;;9.30;79.80;95855.31;1756093;81;21568;-73
2022/09/23 06:53:38;;;;;;;4.35;3.37;;;;;;;9.40;79.61;95856.06;1756480;82;21579;-72
2022/09/23 06:56:07;;;;;;;3.17;2.87;;;;;;;9.46;79.19;95850.76;1756292;82;21010;-72
2022/09/23 06:58:36;;;;;;;5.65;3.15;;;;;;;9.52;79.13;95849.36;1754652;82;21716;-73
2022/09/23 07:01:10;;;;;;;4.40;2.80;;;;;;;9.57;78.45;95856.77;1755446;82;21125;-80
2022/09/23 07:03:38;;;;;;;3.12;2.45;;;;;;;9.64;78.35;95854.95;1754596;82;21046;-76
2022/09/23 07:06:06;;;;;;;3.77;2.85;;;;;;;9.69;78.10;95857.96;1755023;82;21070;-74
2022/09/23 07:08:34;;;;;;;3.25;2.70;;;;;;;9.73;77.00;95857.50;1754775;81;21101;-75
2022/09/23 07:11:05;;;;;;;4.20;3.12;;;;;;;9.86;76.81;95855.14;1755367;81;21060;-74
2022/09/23 07:13:32;;;;;;;2.70;2.27;;;;;;;10.04;77.31;95855.37;1755656;82;21105;-74
2022/09/23 07:16:00;;;;;;;4.50;2.45;;;;;;;10.20;76.69;95854.72;1755593;82;20991;-75
2022/09/23 07:18:32;;;;;;;5.42;2.40;;;;;;;10.35;76.20;95856.31;1755468;82;21029;-73
2022/09/23 07:21:12;;;;;;;2.98;2.20;;;;;;;10.50;75.94;95858.73;1755123;82;20991;-74
2022/09/23 07:23:38;;;;;;;5.65;3.10;;;;;;;10.70;75.49;95856.27;1754903;82;21061;-74
2022/09/23 07:26:06;;;;;;;8.93;4.33;;;;;;;10.80;73.70;95849.95;1752567;82;21180;-78
2022/09/23 07:28:35;;;;;;;3.47;2.92;;;;;;;10.97;74.28;95854.53;1743224;82;20998;-75
2022/09/23 07:31:09;;;;;;;4.45;3.25;;;;;;;11.11;74.45;95858.25;1746441;81;21026;-75
2022/09/23 07:33:39;;;;;;;5.70;5.20;;;;;;;11.22;73.44;95855.00;1736876;81;20993;-76
2022/09/23 07:36:12;;;;;;;5.78;3.33;;;;;;;11.29;70.68;95857.09;1750118;81;21062;-76
2022/09/23 07:38:39;;;;;;;7.83;2.87;;;;;;;11.36;72.47;95862.67;1749897;81;20990;-76
2022/09/23 07:41:10;;;;;;;6.45;2.85;;;;;;;11.50;71.63;95856.30;1748174;81;20997;-75
2022/09/23 07:43:39;;;;;;;4.47;3.20;;;;;;;11.63;70.69;95856.48;1749286;81;21532;-76
2022/09/23 07:46:11;;;;;;;4.95;2.33;;;;;;;11.75;71.82;95854.07;1749806;82;21097;-72
2022/09/23 07:48:39;;;;;;;3.77;2.15;;;;;;;12.02;70.46;95860.60;1749040;81;21451;-80
2022/09/23 07:51:14;;;;;;;5.22;2.08;;;;;;;12.32;69.51;95854.70;1758966;81;21076;-76
2022/09/23 07:53:40;;;;;;;4.25;2.25;;;;;;;12.43;68.52;95855.80;1766557;81;21504;-78
2022/09/23 07:56:07;;;;;;;5.45;2.72;;;;;;;12.51;67.94;95856.48;1759874;81;21029;-75
2022/09/23 07:58:34;;;;;;;3.90;2.00;;;;;;;12.62;67.16;95852.27;1772983;81;21025;-76
2022/09/23 08:01:04;;;;;;;3.75;2.40;;;;;;;12.73;66.99;95856.02;1773686;81;21017;-75
2022/09/23 08:03:31;;;;;;;2.77;1.98;;;;;;;12.85;66.61;95852.20;1771646;81;21447;-76
2022/09/23 08:06:10;;;;;;;5.15;2.12;;;;;;;12.94;64.55;95852.86;1771435;81;21027;-83
2022/09/23 08:08:42;;;;;;;3.50;2.27;;;;;;;12.94;63.67;95852.86;1772718;81;21092;-80
2022/09/23 08:11:12;;;;;;;4.80;2.27;;;;;;;12.98;64.80;95853.67;1769844;81;21102;-76
2022/09/23 08:13:39;;;;;;;6.55;2.80;;;;;;;13.00;65.10;95845.22;1773117;81;21130;-73
2022/09/23 08:16:06;;;;;;;2.83;2.10;;;;;;;13.15;64.09;95845.30;1773014;81;21029;-74
2022/09/23 08:18:33;;;;;;;3.77;2.02;;;;;;;13.15;64.09;95845.30;1730318;81;21558;-76
2022/09/23 08:20:59;;;;;;;4.67;2.30;;;;;;;13.24;62.96;95838.45;1763672;81;21076;-74
2022/09/23 08:23:26;;;;;;;5.87;2.72;;;;;;;13.35;63.08;95842.19;1765176;81;21112;-79
2022/09/23 08:25:59;;;;;;;5.17;2.30;;;;;;;13.47;62.44;95836.58;1768257;81;21053;-82
2022/09/23 08:28:26;;;;;;;4.33;2.20;;;;;;;13.47;62.44;95836.58;1763625;81;21008;-81
2022/09/23 08:30:54;;;;;;;2.02;1.50;;;;;;;13.55;61.71;95844.33;1762229;81;20982;-79
2022/09/23 08:33:22;;;;;;;7.60;1.98;;;;;;;13.58;60.74;95839.83;1762503;81;21867;-74
2022/09/23 08:35:49;;;;;;;1.35;1.25;;;;;;;13.63;60.06;95844.98;1772090;81;21002;-79
2022/09/23 08:38:16;;;;;;;3.08;2.00;;;;;;;13.61;58.83;95848.16;1769687;81;20985;-74
2022/09/23 08:40:47;;;;;;;2.37;1.70;;;;;;;13.57;58.34;95842.05;1745244;81;21060;-71
2022/09/23 08:43:20;;;;;;;1.42;1.32;;;;;;;13.53;57.88;95843.48;1763681;81;21338;-72
2022/09/23 08:45:49;;;;;;;;;;;;;;;13.44;57.44;95843.28;1770957;81;21142;-74
2022/09/23 08:48:24;;;;;;;2.08;1.65;;;;;;;13.25;58.17;95848.59;1764066;81;20482;-80
2022/09/23 08:50:57;;;;;;;2.20;1.47;;;;;;;13.25;58.17;95848.59;1758932;81;21127;-77
2022/09/23 08:53:28;;;;;;;1.95;1.60;;;;;;;13.29;59.13;95844.55;1755279;81;21049;-75
2022/09/23 08:55:59;;;;;;;2.42;1.60;;;;;;;13.27;58.63;95842.38;1756316;81;21061;-74
2022/09/23 08:58:37;;;;;;;1.47;1.37;;;;;;;13.20;56.50;95836.35;1755628;81;21061;-80
2022/09/23 09:01:34;;;;;;;1.47;1.37;;;;;;;13.20;56.50;95836.35;1721169;82;21090;-78
2022/09/23 09:04:12;;;;;;;2.12;1.90;;;;;;;13.21;57.28;95847.81;1712400;84;21084;-76
2022/09/23 09:06:45;;;;;;;1.30;1.20;;;;;;;13.34;56.37;95843.97;1751625;82;21045;-82
2022/09/23 09:09:23;;;;;;;1.70;1.60;;;;;;;13.32;58.08;95843.59;1755453;82;21570;-81
2022/09/23 09:11:56;;;;;;;1.70;1.60;;;;;;;13.32;58.08;95843.59;1755656;82;21065;-81
2022/09/23 09:14:37;;;;;;;2.10;1.25;;;;;;;13.39;58.05;95841.21;1756244;82;21469;-80
2022/09/23 09:17:09;;;;;;;2.42;2.15;;;;;;;13.46;56.76;95845.45;1755610;82;21062;-78
2022/09/23 09:20:08;;;;;;;2.08;1.70;;;;;;;13.46;56.76;95845.45;1753569;82;21113;-79
2022/09/23 09:22:56;;;;;;;1.87;1.70;;;;;;;13.63;57.79;95845.88;1749127;82;21097;-80
2022/09/23 09:25:28;;;;;;;1.47;1.37;;;;;;;13.67;57.28;95845.33;1755880;82;20987;-82
2022/09/23 09:27:56;;;;;;;1.98;1.42;;;;;;;13.81;54.54;95841.86;1755754;82;21039;-80
2022/09/23 09:30:24;;;;;;;1.27;1.17;;;;;;;13.85;54.99;95839.98;1756250;82;20979;-81
2022/09/23 09:33:05;;;;;;;1.40;1.30;;;;;;;13.95;55.01;95841.47;1756277;82;21062;-81
2022/09/23 09:35:38;;;;;;;1.60;1.50;;;;;;;13.95;55.01;95841.47;1756478;82;21063;-81
2022/09/23 09:38:04;;;;;;;1.53;1.13;;;;;;;14.12;55.62;95842.79;1700337;82;21082;-80
2022/09/23 09:40:33;;;;;;;1.82;1.20;;;;;;;14.18;53.02;95841.27;1755357;82;21078;-80
2022/09/23 09:43:04;;;;;;;2.27;1.30;;;;;;;14.04;53.12;95841.22;1755513;82;21035;-82
2022/09/23 09:46:02;;;;;;;2.08;1.50;;;;;;;13.92;52.71;95841.56;1756070;82;21046;-81
2022/09/23 09:48:38;;;;;;;2.10;1.55;;;;;;;13.87;51.64;95846.12;1756097;82;21086;-78
2022/09/23 09:51:22;;;;;;;3.05;1.80;;;;;;;13.78;51.15;95851.66;1762976;81;21034;-80
2022/09/23 09:53:52;;;;;;;1.52;1.20;;;;;;;13.56;52.77;95844.76;1768020;81;21085;-80
2022/09/23 09:56:34;;;;;;;1.60;1.50;;;;;;;13.64;53.17;95841.44;1768644;81;21026;-81
2022/09/23 09:59:10;;;;;;;2.72;1.85;;;;;;;13.82;54.70;95840.94;1768615;81;21018;-81
2022/09/23 10:01:37;;;;;;;2.25;2.10;;;;;;;13.92;51.85;95842.88;1768519;81;20970;-81
2022/09/23 10:04:23;;;;;;;2.47;2.27;;;;;;;13.98;53.10;95844.48;1768615;81;21018;-80
2022/09/23 10:07:14;;;;;;;3.80;1.90;;;;;;;13.94;51.72;95850.81;1768466;81;20962;-80
2022/09/23 10:09:49;;;;;;;1.57;1.40;;;;;;;13.83;53.57;95844.02;1768637;81;21496;-80
2022/09/23 10:12:24;;;;;;;0.93;0.90;;;;;;;13.97;54.69;95850.26;1768652;81;20998;-81
2022/09/23 10:14:55;;;;;;;1.80;1.45;;;;;;;14.07;52.04;95842.91;1768335;81;21062;-81
2022/09/23 10:17:27;;;;;;;1.57;1.10;;;;;;;13.91;50.83;95849.11;1768663;81;21018;-81
2022/09/23 10:20:01;;;;;;;1.40;1.30;;;;;;;13.80;52.32;95846.73;1768591;81;21488;-81
2022/09/23 10:22:36;;;;;;;1.35;1.25;;;;;;;13.90;51.98;95846.49;1768359;81;21062;-81
2022/09/23 10:25:12;;;;;;;1.85;1.10;;;;;;;14.03;51.32;95842.58;1768734;81;21519;-81
2022/09/23 10:27:39;;;;;;;1.40;1.30;;;;;;;14.11;53.14;95843.25;1767430;81;21025;-81
2022/09/23 10:30:22;;;;;;;2.00;1.40;;;;;;;14.20;52.25;95832.81;1767961;81;21064;-80
2022/09/23 10:32:53;;;;;;;1.30;1.20;;;;;;;14.38;53.02;95830.08;1767206;81;21529;-82
2022/09/23 10:35:23;;;;;;;1.60;1.50;;;;;;;14.74;53.75;95834.78;1768388;81;21464;-81
2022/09/23 10:37:55;;;;;;;1.65;1.40;;;;;;;14.60;48.52;95825.03;1768158;81;20993;-81
2022/09/23 10:46:41;;;;;;;2.27;1.37;;;;;;;14.42;51.24;95824.64;1767582;81;21072;-81
2022/09/23 10:49:44;;;;;;;1.40;1.30;;;;;;;14.66;49.48;95820.84;1749900;81;21302;-81
2022/09/23 10:52:40;;;;;;;1.42;1.32;;;;;;;14.75;48.01;95815.72;1767709;81;21548;-81
2022/09/23 10:55:24;;;;;;;1.77;1.42;;;;;;;14.99;47.13;95812.73;1767447;81;21468;-81
2022/09/23 10:58:09;;;;;;;1.85;1.50;;;;;;;15.22;47.70;95815.52;1768034;81;21018;-78
2022/09/23 11:00:56;;;;;;;1.67;1.35;;;;;;;15.44;46.84;95798.83;1767362;81;21042;-81
2022/09/23 11:03:37;;;;;;;2.58;1.92;;;;;;;15.73;47.30;95805.84;1768114;81;21109;-81
2022/09/23 11:06:41;;;;;;;2.12;1.60;;;;;;;16.04;46.30;95814.04;1768245;81;21069;-81
2022/09/23 11:09:39;;;;;;;1.40;1.30;;;;;;;16.34;45.53;95814.70;1767458;81;21060;-82
2022/09/23 11:12:30;;;;;;;3.40;1.35;;;;;;;16.50;42.01;95809.64;1768294;81;21045;-81
2022/09/23 11:15:21;;;;;;;1.65;1.40;;;;;;;16.51;43.98;95804.74;1768350;81;21162;-81
2022/09/23 11:18:18;;;;;;;1.40;1.30;;;;;;;16.88;44.87;95794.84;1768330;81;21029;-83
2022/09/23 11:21:13;;;;;;;1.30;1.20;;;;;;;17.03;41.63;95793.36;1746917;81;21022;-81
2022/09/23 11:24:00;;;;;;;1.37;1.27;;;;;;;16.95;42.60;95801.67;1768672;81;21030;-81
2022/09/23 11:26:41;;;;;;;1.72;1.62;;;;;;;17.06;43.78;95794.59;1768342;81;21073;-81
2022/09/23 11:29:55;;;;;;;1.30;1.20;;;;;;;17.42;43.74;95791.32;1767025;81;21018;-81
2022/09/23 11:32:52;;;;;;;1.47;1.20;;;;;;;17.21;39.94;95790.40;1706552;84;21006;-81
2022/09/23 11:35:40;;;;;;;2.00;1.35;;;;;;;16.32;41.07;95803.23;1741357;82;21018;-80
2022/09/23 11:38:12;;;;;;;2.08;1.60;;;;;;;15.76;44.44;95798.59;1741239;82;21006;-81
2022/09/23 11:40:41;;;;;;;2.02;1.85;;;;;;;15.62;44.23;95803.96;1755526;81;21030;-81
2022/09/23 11:43:24;;;;;;;3.47;2.27;;;;;;;15.51;44.75;95809.20;1768591;81;20982;-81
2022/09/23 11:46:09;;;;;;;4.35;2.95;;;;;;;15.32;45.14;95812.96;1768530;81;21006;-80
2022/09/23 11:48:50;;;;;;;3.47;2.90;;;;;;;14.98;48.22;95815.84;1768522;81;21002;-79
2022/09/23 11:51:45;;;;;;;3.98;2.50;;;;;;;14.62;50.11;95814.77;1763332;81;21078;-80
2022/09/23 11:54:25;;;;;;;2.92;2.60;;;;;;;14.32;51.75;95816.53;1755408;82;21041;-79
2022/09/23 11:56:57;;;;;;;2.80;2.30;;;;;;;14.14;52.96;95818.41;1743709;82;21476;-80
2022/09/23 11:59:45;;;;;;;2.27;1.98;;;;;;;14.01;53.33;95816.53;1728054;82;21050;-80
2022/09/23 12:02:26;;;;;;;2.85;2.30;;;;;;;13.96;53.18;95819.78;1756375;82;20994;-79
2022/09/23 12:05:09;;;;;;;2.95;2.30;;;;;;;13.91;54.37;95818.61;1753856;81;20999;-79
2022/09/23 12:08:12;;;;;;;;;;;;;;;13.84;54.53;95805.96;1758709;82;21052;-79
2022/09/23 12:11:02;;;;;;;4.12;2.47;;;;;;;13.79;55.25;95807.01;1756539;81;20126;-80
2022/09/23 12:14:01;;;;;;;3.80;2.27;;;;;;;13.68;54.86;95806.42;1756386;82;21094;-80
2022/09/23 12:16:52;;;;;;;4.67;2.20;;;;;;;13.59;54.10;95804.44;1695383;85;21583;-79
2022/09/23 12:19:50;;;;;;;7.12;3.98;;;;;;;13.45;52.85;95813.66;1752612;81;21042;-79